Time;durP1;ratioP1;P1;durP2;ratioP2;P2;SDS_P1;SDS_P2;PMS_P1;PMS_P2;Temp;Humidity;BMP_temperature;BMP_pressure;BME280_temperature;BME280_humidity;BME280_pressure;Samples;Min_cycle;Max_cycle;Signal;HPM_P1;HPM_P2
2022/03/12 00:00:27;;;;;;;16.50;14.60;;;6.80;48.80;;;;;;4903891;29;20455;-86
2022/03/12 00:02:54;;;;;;;16.87;14.27;;;6.80;48.90;;;;;;4903144;29;20519;-86
2022/03/12 00:05:21;;;;;;;19.47;14.30;;;6.80;49.00;;;;;;4903931;29;20499;-87
2022/03/12 00:07:51;;;;;;;19.73;15.90;;;6.80;49.00;;;;;;4903922;29;20462;-86
2022/03/12 00:10:23;;;;;;;21.30;15.17;;;6.80;49.20;;;;;;4906432;29;20487;-85
2022/03/12 00:13:15;;;;;;;19.53;16.00;;;6.80;49.30;;;;;;4912263;29;20461;-87
2022/03/12 00:15:42;;;;;;;16.90;13.90;;;6.90;49.50;;;;;;4939175;23;20474;-89
2022/03/12 00:18:11;;;;;;;20.73;15.87;;;6.80;49.30;;;;;;4943124;29;20460;-86
2022/03/12 00:20:38;;;;;;;16.20;14.37;;;6.70;49.40;;;;;;4951169;29;20571;-87
2022/03/12 00:23:15;;;;;;;20.63;15.70;;;6.70;49.50;;;;;;4944027;29;20464;-87
2022/03/12 00:25:44;;;;;;;18.80;15.00;;;6.60;49.60;;;;;;4941767;29;20473;-88
2022/03/12 00:28:12;;;;;;;18.20;14.70;;;6.60;49.70;;;;;;4942344;29;20462;-87
2022/03/12 00:30:41;;;;;;;17.20;14.97;;;6.60;49.60;;;;;;4943275;29;21140;-87
2022/03/12 00:33:08;;;;;;;18.03;14.43;;;6.60;49.70;;;;;;4956274;29;20492;-87
2022/03/12 00:35:40;;;;;;;16.67;14.67;;;6.60;49.70;;;;;;4946000;29;20446;-87
2022/03/12 00:38:08;;;;;;;17.80;14.13;;;6.70;49.60;;;;;;4939022;29;20451;-87
2022/03/12 00:40:35;;;;;;;16.97;14.90;;;6.70;49.60;;;;;;4938676;29;20456;-87
2022/03/12 00:43:06;;;;;;;17.10;13.70;;;6.70;49.80;;;;;;4935549;29;20449;-87
2022/03/12 00:45:33;;;;;;;23.00;15.30;;;6.70;49.90;;;;;;4940409;29;20827;-86
2022/03/12 00:47:59;;;;;;;20.90;15.40;;;6.70;50.20;;;;;;4949571;29;20430;-88
2022/03/12 00:50:26;;;;;;;17.00;12.70;;;6.70;50.10;;;;;;4963245;29;20447;-89
2022/03/12 00:52:53;;;;;;;20.33;14.80;;;6.70;49.90;;;;;;4952500;29;20445;-87
2022/03/12 00:55:20;;;;;;;20.10;14.87;;;6.70;50.00;;;;;;4953432;29;20426;-87
2022/03/12 00:57:47;;;;;;;16.13;13.00;;;6.70;50.20;;;;;;4949767;29;20445;-87
2022/03/12 01:00:17;;;;;;;14.67;12.83;;;6.60;50.10;;;;;;4943570;29;20453;-87
2022/03/12 01:02:44;;;;;;;18.87;13.43;;;6.60;50.20;;;;;;4947092;29;20435;-86
2022/03/12 01:05:13;;;;;;;21.33;13.43;;;6.60;49.40;;;;;;4946406;29;20448;-87
2022/03/12 01:07:40;;;;;;;16.43;14.70;;;6.60;49.50;;;;;;4944706;29;20478;-87
2022/03/12 01:10:08;;;;;;;15.80;13.63;;;6.60;50.00;;;;;;4956171;29;20436;-86
2022/03/12 01:12:52;;;;;;;17.33;13.00;;;6.60;49.70;;;;;;4951661;29;20472;-88
2022/03/12 01:15:20;;;;;;;18.70;14.47;;;6.60;49.80;;;;;;4957495;28;20449;-87
2022/03/12 01:17:47;;;;;;;14.83;12.63;;;6.60;49.80;;;;;;4943043;29;20978;-87
2022/03/12 01:20:14;;;;;;;16.07;12.70;;;6.60;49.80;;;;;;4941115;29;20457;-88
2022/03/12 01:22:41;;;;;;;17.40;12.90;;;6.60;49.70;;;;;;4939742;29;20456;-87
2022/03/12 01:25:09;;;;;;;16.57;13.17;;;6.60;49.50;;;;;;4941201;29;20457;-87
2022/03/12 01:27:40;;;;;;;17.50;14.70;;;6.50;49.80;;;;;;4933445;29;20472;-86
2022/03/12 01:30:08;;;;;;;17.10;13.73;;;6.50;49.90;;;;;;4958810;28;20428;-90
2022/03/12 01:32:37;;;;;;;14.97;13.40;;;6.40;50.10;;;;;;4952291;28;20479;-87
2022/03/12 01:35:05;;;;;;;20.40;12.40;;;6.50;49.90;;;;;;4945230;29;20467;-87
2022/03/12 01:37:32;;;;;;;20.23;12.93;;;6.50;49.50;;;;;;4932371;29;20853;-87
2022/03/12 01:39:59;;;;;;;22.10;13.80;;;6.50;49.40;;;;;;4939748;29;20448;-86
2022/03/12 01:42:27;;;;;;;14.80;12.23;;;6.50;49.30;;;;;;4949865;29;20454;-87
2022/03/12 01:44:54;;;;;;;19.10;13.10;;;6.50;49.10;;;;;;4938262;29;20449;-87
2022/03/12 01:47:22;;;;;;;13.67;11.60;;;6.50;48.80;;;;;;4935508;29;20463;-87
2022/03/12 01:49:53;;;;;;;14.60;11.20;;;6.50;48.50;;;;;;4946841;29;20455;-87
2022/03/12 01:52:21;;;;;;;13.90;11.40;;;6.40;48.60;;;;;;4962050;29;21081;-88
2022/03/12 01:54:48;;;;;;;17.07;11.43;;;6.40;48.20;;;;;;4954061;29;20457;-88
2022/03/12 01:57:15;;;;;;;14.80;11.60;;;6.40;48.40;;;;;;4954145;29;20536;-88
2022/03/12 01:59:43;;;;;;;17.23;12.30;;;6.40;48.30;;;;;;4961096;28;20489;-87
2022/03/12 02:02:13;;;;;;;15.70;11.70;;;6.40;48.00;;;;;;4953905;29;20433;-86
2022/03/12 02:04:41;;;;;;;13.90;10.93;;;6.40;48.00;;;;;;4933735;29;20525;-88
2022/03/12 02:07:10;;;;;;;13.73;11.53;;;6.40;48.10;;;;;;4933780;29;20532;-88
2022/03/12 02:09:37;;;;;;;13.50;11.47;;;6.30;48.00;;;;;;4927377;29;20458;-87
2022/03/12 02:12:05;;;;;;;16.80;12.10;;;6.30;48.40;;;;;;4948322;29;20491;-87
2022/03/12 02:14:34;;;;;;;19.30;12.47;;;6.30;48.10;;;;;;4946110;29;20447;-86
2022/03/12 02:17:03;;;;;;;12.33;10.83;;;6.30;48.30;;;;;;4940903;29;20506;-87
2022/03/12 02:19:32;;;;;;;16.10;12.03;;;6.30;48.20;;;;;;4934460;29;20460;-88
2022/03/12 02:22:01;;;;;;;15.20;12.00;;;6.30;48.50;;;;;;4928312;29;20455;-87
2022/03/12 02:24:31;;;;;;;15.33;12.27;;;6.30;48.50;;;;;;4933980;29;20453;-88
2022/03/12 02:27:01;;;;;;;15.00;11.87;;;6.30;48.60;;;;;;4940504;29;20454;-88
2022/03/12 02:29:29;;;;;;;17.00;12.40;;;6.30;48.60;;;;;;4938627;29;20448;-86
2022/03/12 02:31:58;;;;;;;16.77;11.03;;;6.30;49.10;;;;;;4963263;29;20492;-84
2022/03/12 02:34:30;;;;;;;14.10;11.43;;;6.30;49.20;;;;;;4947066;29;20443;-85
2022/03/12 02:37:50;;;;;;;16.53;12.33;;;6.30;49.30;;;;;;4934593;29;20461;-85
2022/03/12 02:40:19;;;;;;;14.37;11.03;;;6.20;49.50;;;;;;4924385;29;20949;-85
2022/03/12 02:42:46;;;;;;;14.30;11.77;;;6.30;49.70;;;;;;4932514;29;20449;-85
2022/03/12 02:45:13;;;;;;;16.33;12.20;;;6.20;49.10;;;;;;4932528;29;20490;-84
2022/03/12 02:47:41;;;;;;;17.00;12.07;;;6.20;49.90;;;;;;4926946;29;20472;-85
2022/03/12 02:50:10;;;;;;;12.27;11.00;;;6.30;50.00;;;;;;4929069;29;20445;-85
2022/03/12 02:52:41;;;;;;;14.43;12.00;;;6.20;50.20;;;;;;4941728;29;20473;-85
2022/03/12 02:55:12;;;;;;;16.33;11.30;;;6.20;50.20;;;;;;4941707;29;20433;-85
2022/03/12 02:57:42;;;;;;;15.90;12.10;;;6.10;50.60;;;;;;4947297;29;20485;-84
2022/03/12 03:00:10;;;;;;;17.23;10.47;;;6.10;50.70;;;;;;4946823;29;20473;-84
2022/03/12 03:02:40;;;;;;;15.33;11.70;;;6.10;50.30;;;;;;4951342;28;20444;-84
2022/03/12 03:05:14;;;;;;;14.50;11.50;;;6.20;50.10;;;;;;4951221;29;20452;-85
2022/03/12 03:07:40;;;;;;;12.27;10.47;;;6.20;50.20;;;;;;4943155;29;20475;-83
2022/03/12 03:10:09;;;;;;;13.80;10.97;;;6.10;50.30;;;;;;4935023;29;20460;-86
2022/03/12 03:12:36;;;;;;;15.50;11.30;;;6.10;50.30;;;;;;4929569;29;20484;-86
2022/03/12 03:15:05;;;;;;;11.77;10.43;;;6.10;50.80;;;;;;4929577;29;20438;-85
2022/03/12 03:17:32;;;;;;;13.23;10.90;;;6.10;50.80;;;;;;4934524;29;20480;-85
2022/03/12 03:20:01;;;;;;;14.00;11.40;;;6.00;51.60;;;;;;4942876;29;20454;-84
2022/03/12 03:22:27;;;;;;;17.00;12.00;;;6.00;51.20;;;;;;4938624;29;20504;-85
2022/03/12 03:24:54;;;;;;;12.60;11.00;;;6.00;51.00;;;;;;4937418;29;20810;-85
2022/03/12 03:27:21;;;;;;;12.87;11.57;;;5.90;51.20;;;;;;4937023;29;21002;-85
2022/03/12 03:29:48;;;;;;;14.10;11.60;;;5.80;51.40;;;;;;4937496;29;20465;-84
2022/03/12 03:32:17;;;;;;;12.63;10.10;;;5.80;51.60;;;;;;4939759;29;20496;-86
2022/03/12 03:34:43;;;;;;;13.97;10.13;;;5.70;51.50;;;;;;4940761;29;20494;-85
2022/03/12 03:37:10;;;;;;;11.30;9.77;;;5.70;51.90;;;;;;4940039;29;20472;-86
2022/03/12 03:39:39;;;;;;;12.77;11.23;;;5.70;52.00;;;;;;4938950;29;21161;-86
2022/03/12 03:42:06;;;;;;;13.30;11.17;;;5.60;51.90;;;;;;4939830;29;20951;-84
2022/03/12 03:44:33;;;;;;;13.00;11.70;;;5.60;52.10;;;;;;4939615;29;20449;-84
2022/03/12 03:47:00;;;;;;;14.33;11.30;;;5.60;52.10;;;;;;4939372;29;20888;-84
2022/03/12 03:49:28;;;;;;;12.90;10.93;;;5.50;52.20;;;;;;4962095;28;20490;-84
2022/03/12 03:51:56;;;;;;;14.53;11.00;;;5.50;52.10;;;;;;4945803;28;20479;-84
2022/03/12 03:54:23;;;;;;;15.53;11.13;;;5.50;52.30;;;;;;4939187;29;20456;-85
2022/03/12 03:56:50;;;;;;;14.00;11.50;;;5.60;52.10;;;;;;4939516;29;20886;-84
2022/03/12 03:59:17;;;;;;;15.23;11.60;;;5.70;51.60;;;;;;4938817;29;20486;-85
2022/03/12 04:01:45;;;;;;;13.03;10.80;;;5.70;51.40;;;;;;4938375;29;20482;-84
2022/03/12 04:04:13;;;;;;;13.40;11.90;;;5.60;51.70;;;;;;4938886;29;20520;-85
2022/03/12 04:06:41;;;;;;;13.20;11.33;;;5.50;51.90;;;;;;4938384;29;20480;-85
2022/03/12 04:09:08;;;;;;;14.87;13.27;;;5.50;52.10;;;;;;4946118;29;20469;-84
2022/03/12 04:11:35;;;;;;;15.30;11.37;;;5.50;52.50;;;;;;4953104;28;20469;-83
2022/03/12 04:14:05;;;;;;;13.83;11.63;;;5.40;52.60;;;;;;4950219;28;20449;-86
2022/03/12 04:16:33;;;;;;;14.17;11.67;;;5.40;52.80;;;;;;4939165;29;20565;-85
2022/03/12 04:19:03;;;;;;;13.30;11.90;;;5.30;53.00;;;;;;4944798;29;20463;-85
2022/03/12 04:21:30;;;;;;;15.63;12.10;;;5.20;53.30;;;;;;4942753;29;20455;-86
2022/03/12 04:23:58;;;;;;;16.90;11.20;;;5.20;53.30;;;;;;4939233;29;20454;-86
2022/03/12 04:26:24;;;;;;;13.53;11.83;;;5.10;53.30;;;;;;4938231;29;20533;-85
2022/03/12 04:28:51;;;;;;;14.63;12.20;;;5.10;53.40;;;;;;4938569;29;20455;-85
2022/03/12 04:31:19;;;;;;;12.57;11.27;;;5.10;53.60;;;;;;4943575;29;20479;-85
2022/03/12 04:33:46;;;;;;;16.07;11.40;;;5.10;53.70;;;;;;4956284;29;20212;-85
2022/03/12 04:36:13;;;;;;;17.30;11.13;;;5.00;53.70;;;;;;4946460;29;20471;-85
2022/03/12 04:38:41;;;;;;;13.43;10.70;;;5.00;53.80;;;;;;4951343;29;20450;-84
2022/03/12 04:41:11;;;;;;;13.70;11.20;;;5.10;53.60;;;;;;4949462;29;20505;-85
2022/03/12 04:43:38;;;;;;;14.10;11.00;;;5.10;53.50;;;;;;4956078;29;20523;-85
2022/03/12 04:46:05;;;;;;;13.85;11.77;;;5.10;53.40;;;;;;4949329;29;20535;-85
2022/03/12 04:48:32;;;;;;;15.20;11.40;;;5.00;53.40;;;;;;4960272;28;20189;-85
2022/03/12 04:50:59;;;;;;;16.60;11.13;;;5.10;53.40;;;;;;4961925;28;20476;-84
2022/03/12 04:53:27;;;;;;;14.73;11.60;;;5.10;53.00;;;;;;4956548;28;20492;-85
2022/03/12 04:55:54;;;;;;;13.93;11.13;;;5.10;53.00;;;;;;4952432;29;20476;-85
2022/03/12 04:58:22;;;;;;;17.63;11.00;;;5.20;53.30;;;;;;4957790;29;20439;-85
2022/03/12 05:00:49;;;;;;;14.65;11.30;;;5.20;53.10;;;;;;4944514;29;20457;-86
2022/03/12 05:03:19;;;;;;;15.10;12.53;;;5.20;53.10;;;;;;4938501;29;20204;-86
2022/03/12 05:05:48;;;;;;;17.20;13.20;;;5.30;52.90;;;;;;4938756;29;20479;-84
2022/03/12 05:08:17;;;;;;;12.63;10.93;;;5.40;52.80;;;;;;4937710;29;21002;-84
2022/03/12 05:10:47;;;;;;;15.07;11.67;;;5.40;52.50;;;;;;4937723;29;20449;-84
2022/03/12 05:13:15;;;;;;;14.60;11.07;;;5.40;52.40;;;;;;4937252;29;20583;-84
2022/03/12 05:15:43;;;;;;;12.30;9.93;;;5.40;52.50;;;;;;4956011;29;20484;-84
2022/03/12 05:18:12;;;;;;;16.70;12.17;;;5.30;52.80;;;;;;4954884;28;20443;-84
2022/03/12 05:20:43;;;;;;;12.83;10.53;;;5.30;53.00;;;;;;4948740;29;20962;-84
2022/03/12 05:23:10;;;;;;;14.20;11.23;;;5.40;52.90;;;;;;4952975;29;20469;-83
2022/03/12 05:25:39;;;;;;;15.65;11.65;;;5.40;52.30;;;;;;4947874;29;20453;-84
2022/03/12 05:28:06;;;;;;;13.73;10.77;;;5.50;52.20;;;;;;4946105;29;20637;-84
2022/03/12 05:30:33;;;;;;;21.27;12.10;;;5.50;52.00;;;;;;4938774;29;20455;-84
2022/03/12 05:33:01;;;;;;;14.00;10.87;;;5.50;52.20;;;;;;4937561;29;20492;-84
2022/03/12 05:35:28;;;;;;;13.03;10.83;;;5.50;51.30;;;;;;4937860;29;20950;-84
2022/03/12 05:37:55;;;;;;;13.60;9.73;;;5.50;51.00;;;;;;4937811;29;20462;-84
2022/03/12 05:40:25;;;;;;;13.43;10.80;;;5.50;50.90;;;;;;4943444;29;20453;-84
2022/03/12 05:42:53;;;;;;;15.03;10.07;;;5.60;50.70;;;;;;4956087;28;20443;-83
2022/03/12 05:45:21;;;;;;;14.60;10.73;;;5.60;50.80;;;;;;4948466;28;20447;-84
2022/03/12 05:47:49;;;;;;;16.50;11.77;;;5.60;51.10;;;;;;4944687;29;20456;-84
2022/03/12 05:50:19;;;;;;;14.10;11.37;;;5.60;51.30;;;;;;4941583;29;20466;-84
2022/03/12 05:52:49;;;;;;;15.93;11.00;;;5.50;51.00;;;;;;4936044;29;20569;-85
2022/03/12 05:55:18;;;;;;;12.30;10.10;;;5.50;51.10;;;;;;4936850;29;20478;-86
2022/03/12 05:57:45;;;;;;;13.43;10.97;;;5.40;51.70;;;;;;4937016;29;20444;-86
2022/03/12 06:00:15;;;;;;;18.00;12.80;;;5.40;51.70;;;;;;4938836;29;20444;-85
2022/03/12 06:02:48;;;;;;;17.50;11.47;;;5.30;51.70;;;;;;4938356;29;20567;-85
2022/03/12 06:05:17;;;;;;;11.83;10.60;;;5.30;52.00;;;;;;4941155;29;20451;-85
2022/03/12 06:07:45;;;;;;;15.87;10.93;;;5.30;52.20;;;;;;4938047;29;20448;-86
2022/03/12 06:10:12;;;;;;;15.17;12.77;;;5.30;52.20;;;;;;4938615;29;20545;-85
2022/03/12 06:12:43;;;;;;;13.60;11.67;;;5.40;52.10;;;;;;4936836;29;20486;-85
2022/03/12 06:15:11;;;;;;;14.30;10.43;;;5.50;52.10;;;;;;4938046;29;20882;-85
2022/03/12 06:17:39;;;;;;;12.87;11.23;;;5.60;52.10;;;;;;4937198;29;20478;-85
2022/03/12 06:20:07;;;;;;;14.57;11.80;;;5.50;52.00;;;;;;4937654;29;20448;-85
2022/03/12 06:22:35;;;;;;;18.77;12.33;;;5.60;51.80;;;;;;4938112;29;20460;-85
2022/03/12 06:25:02;;;;;;;13.03;10.50;;;5.70;51.40;;;;;;4954448;29;20455;-84
2022/03/12 06:27:29;;;;;;;13.77;10.63;;;5.70;50.90;;;;;;4959431;28;20507;-83
2022/03/12 06:29:56;;;;;;;16.57;9.90;;;5.70;50.60;;;;;;4960546;28;20438;-85
2022/03/12 06:32:23;;;;;;;15.77;11.60;;;5.70;50.60;;;;;;4959476;28;20514;-84
2022/03/12 06:34:50;;;;;;;16.20;10.30;;;5.70;50.50;;;;;;4949064;29;20468;-84
2022/03/12 06:37:17;;;;;;;18.63;11.90;;;5.70;50.50;;;;;;4946227;29;20482;-85
2022/03/12 06:39:45;;;;;;;13.10;10.20;;;5.80;50.70;;;;;;4940253;29;20452;-85
2022/03/12 06:42:11;;;;;;;17.67;11.57;;;5.80;50.40;;;;;;4939519;29;20451;-85
2022/03/12 06:44:38;;;;;;;15.27;10.67;;;5.90;50.20;;;;;;4947526;29;20456;-86
2022/03/12 06:47:09;;;;;;;16.20;12.10;;;5.90;50.20;;;;;;4949415;29;20452;-86
2022/03/12 06:49:36;;;;;;;11.60;10.10;;;6.00;50.10;;;;;;4942886;29;20544;-84
2022/03/12 06:52:03;;;;;;;16.80;10.60;;;6.00;49.80;;;;;;4929264;29;20442;-84
2022/03/12 06:54:30;;;;;;;14.90;11.50;;;6.00;49.90;;;;;;4928906;29;20448;-84
2022/03/12 06:56:58;;;;;;;14.20;11.17;;;5.90;49.90;;;;;;4931533;29;20495;-84
2022/03/12 06:59:25;;;;;;;14.33;11.07;;;5.90;49.90;;;;;;4927509;29;20446;-85
2022/03/12 07:01:52;;;;;;;17.37;12.97;;;6.00;49.80;;;;;;4928375;29;20463;-84
2022/03/12 07:04:21;;;;;;;14.87;11.10;;;6.00;49.70;;;;;;4929518;29;20458;-85
2022/03/12 07:06:48;;;;;;;14.13;11.17;;;5.90;49.80;;;;;;4931135;29;20470;-84
2022/03/12 07:09:15;;;;;;;13.20;11.17;;;6.00;49.70;;;;;;4931244;29;20444;-84
2022/03/12 07:11:42;;;;;;;13.90;11.50;;;6.20;49.40;;;;;;4935563;29;20454;-84
2022/03/12 07:14:10;;;;;;;13.47;11.93;;;6.30;49.20;;;;;;4931612;29;21002;-85
2022/03/12 07:16:37;;;;;;;13.23;11.30;;;6.50;48.90;;;;;;4929715;29;20474;-85
2022/03/12 07:19:04;;;;;;;14.40;11.23;;;6.50;48.60;;;;;;4927280;29;20952;-85
2022/03/12 07:21:31;;;;;;;14.30;11.63;;;6.70;48.70;;;;;;4920578;29;20461;-85
2022/03/12 07:23:57;;;;;;;12.03;10.17;;;6.70;48.20;;;;;;4927341;29;20451;-85
2022/03/12 07:26:24;;;;;;;14.73;13.20;;;6.90;47.90;;;;;;4925142;29;20846;-84
2022/03/12 07:28:51;;;;;;;12.43;10.30;;;6.90;47.70;;;;;;4923544;29;20468;-85
2022/03/12 07:31:20;;;;;;;15.17;11.87;;;6.90;47.90;;;;;;4942064;29;20452;-84
2022/03/12 07:33:47;;;;;;;14.67;10.30;;;6.60;47.90;;;;;;4932607;29;20491;-85
2022/03/12 07:36:13;;;;;;;16.60;12.50;;;6.70;48.40;;;;;;4939591;29;20507;-84
2022/03/12 07:38:40;;;;;;;13.27;11.10;;;6.90;48.00;;;;;;4941100;29;20451;-84
2022/03/12 07:41:07;;;;;;;15.50;11.97;;;7.00;47.50;;;;;;4936078;29;20452;-85
2022/03/12 07:43:34;;;;;;;14.67;13.17;;;7.00;47.50;;;;;;4926463;29;20514;-85
2022/03/12 07:46:01;;;;;;;14.10;10.60;;;7.20;47.50;;;;;;4934082;29;20469;-84
2022/03/12 07:48:29;;;;;;;15.73;12.07;;;7.20;47.10;;;;;;4932781;29;20460;-84
2022/03/12 07:50:58;;;;;;;14.77;10.57;;;7.10;47.40;;;;;;4924671;29;20450;-84
2022/03/12 07:53:26;;;;;;;14.07;11.03;;;7.50;47.30;;;;;;4924802;29;20596;-85
2022/03/12 07:55:53;;;;;;;14.30;11.27;;;7.60;47.10;;;;;;4933712;29;20474;-85
2022/03/12 07:58:20;;;;;;;17.33;12.53;;;8.00;46.70;;;;;;4931657;29;20439;-85
2022/03/12 08:00:47;;;;;;;12.10;10.87;;;8.00;45.90;;;;;;4929797;29;20454;-85
2022/03/12 08:03:14;;;;;;;12.63;11.43;;;7.80;46.00;;;;;;4932666;29;20450;-85
2022/03/12 08:05:42;;;;;;;18.80;12.27;;;7.70;46.20;;;;;;4927896;29;20459;-85
2022/03/12 08:08:09;;;;;;;13.53;12.13;;;7.80;46.60;;;;;;4927400;29;20465;-85
2022/03/12 08:11:24;;;;;;;16.10;13.40;;;8.50;46.30;;;;;;4930728;29;20455;-83
2022/03/12 08:13:25;;;;;;;16.00;11.00;;;9.20;44.60;;;;;;4939073;29;20470;-85
2022/03/12 08:15:52;;;;;;;13.30;11.60;;;9.70;43.00;;;;;;4942794;29;20493;-84
2022/03/12 08:18:18;;;;;;;15.47;12.83;;;9.90;42.50;;;;;;4929879;29;20454;-84
2022/03/12 08:20:46;;;;;;;15.10;11.90;;;10.00;41.30;;;;;;4921461;29;20906;-84
2022/03/12 08:23:13;;;;;;;16.80;14.23;;;9.70;42.60;;;;;;4923050;29;20450;-85
2022/03/12 08:25:40;;;;;;;12.73;11.20;;;10.20;41.80;;;;;;4921908;29;20498;-85
2022/03/12 08:28:07;;;;;;;15.07;11.47;;;10.30;41.00;;;;;;4924735;29;20458;-86
2022/03/12 08:30:34;;;;;;;15.80;12.03;;;11.00;40.60;;;;;;4926161;29;20466;-86
2022/03/12 08:33:02;;;;;;;14.83;13.23;;;11.40;39.60;;;;;;4926929;29;20573;-85
2022/03/12 08:35:29;;;;;;;17.37;12.67;;;11.80;38.80;;;;;;4934430;29;20450;-85
2022/03/12 08:37:57;;;;;;;15.30;13.70;;;12.00;38.00;;;;;;4927010;29;20461;-85
2022/03/12 08:40:26;;;;;;;14.37;11.97;;;12.40;37.80;;;;;;4936291;29;20434;-85
2022/03/12 08:42:53;;;;;;;15.93;12.70;;;12.80;37.30;;;;;;4926359;29;20447;-86
2022/03/12 08:45:20;;;;;;;14.83;13.23;;;13.80;36.80;;;;;;4921319;29;20455;-85
2022/03/12 08:47:47;;;;;;;17.60;12.00;;;14.10;35.80;;;;;;4922168;29;20460;-86
2022/03/12 08:50:14;;;;;;;14.40;13.00;;;14.60;34.50;;;;;;4922754;29;20455;-86
2022/03/12 08:52:42;;;;;;;15.50;12.40;;;14.60;34.30;;;;;;4921370;29;20439;-86
2022/03/12 08:55:11;;;;;;;16.00;13.23;;;14.80;34.00;;;;;;4930054;29;20530;-86
2022/03/12 08:57:38;;;;;;;14.10;12.63;;;14.50;34.30;;;;;;4945805;29;20845;-88
2022/03/12 09:00:07;;;;;;;15.13;13.53;;;15.00;34.60;;;;;;4947296;29;20458;-88
2022/03/12 09:02:35;;;;;;;14.60;13.10;;;15.50;33.80;;;;;;4947892;29;20476;-88
2022/03/12 09:05:04;;;;;;;15.00;13.40;;;16.20;33.00;;;;;;4940819;29;20973;-88
2022/03/12 09:07:45;;;;;;;16.40;13.77;;;16.70;32.50;;;;;;4945461;29;20978;-88
2022/03/12 09:10:17;;;;;;;15.70;14.20;;;18.40;31.70;;;;;;4945409;29;20472;-88
2022/03/12 09:12:44;;;;;;;17.10;15.33;;;18.80;30.50;;;;;;4934398;29;20445;-87
2022/03/12 09:15:13;;;;;;;16.00;14.50;;;19.70;30.00;;;;;;4941311;29;20476;-87
2022/03/12 09:17:42;;;;;;;15.47;13.80;;;19.60;29.30;;;;;;4946708;29;20484;-87
2022/03/12 09:20:25;;;;;;;16.67;15.07;;;19.70;29.20;;;;;;4945114;29;20445;-87
2022/03/12 09:23:01;;;;;;;15.90;14.33;;;20.00;29.00;;;;;;4897436;29;20458;-87
2022/03/12 09:25:30;;;;;;;16.00;14.50;;;20.00;29.20;;;;;;4936340;29;20534;-86
2022/03/12 09:27:59;;;;;;;16.43;14.70;;;20.60;28.90;;;;;;4947652;28;20468;-87
2022/03/12 09:30:26;;;;;;;23.30;16.37;;;20.70;28.90;;;;;;4958804;28;20434;-87
2022/03/12 09:32:53;;;;;;;16.93;15.30;;;20.60;28.60;;;;;;4945055;29;20499;-86
2022/03/12 09:35:20;;;;;;;16.70;15.07;;;20.60;28.80;;;;;;4944873;29;20449;-87
2022/03/12 09:37:52;;;;;;;21.90;16.23;;;21.40;28.30;;;;;;4939055;29;20443;-87
2022/03/12 09:40:19;;;;;;;17.07;15.37;;;22.20;28.10;;;;;;4944434;29;20450;-87
2022/03/12 09:42:55;;;;;;;16.20;14.67;;;22.20;27.50;;;;;;4938559;29;20462;-87
2022/03/12 09:45:23;;;;;;;16.90;15.30;;;21.80;27.90;;;;;;4955277;29;20424;-90
2022/03/12 09:47:50;;;;;;;18.63;16.53;;;21.60;27.80;;;;;;4952207;28;20440;-88
2022/03/12 09:50:17;;;;;;;18.13;16.43;;;21.20;27.80;;;;;;4952908;28;20444;-88
2022/03/12 09:52:46;;;;;;;18.93;16.97;;;21.90;27.90;;;;;;4962951;28;20441;-88
2022/03/12 10:13:42;;;;;;;17.70;15.87;;;24.80;26.30;;;;;;4653386;27;20485;-86
2022/03/12 10:16:18;;;;;;;20.43;18.50;;;24.60;25.30;;;;;;4923725;29;20822;-87
2022/03/12 10:18:53;;;;;;;17.80;16.30;;;24.30;25.90;;;;;;4913241;29;21013;-87
2022/03/12 10:21:30;;;;;;;19.07;17.33;;;25.30;26.20;;;;;;4909958;29;20449;-87
2022/03/12 10:23:58;;;;;;;19.47;17.73;;;26.90;25.50;;;;;;4918212;29;20939;-88
2022/03/12 10:26:28;;;;;;;19.97;18.07;;;26.90;24.50;;;;;;4913141;29;20568;-88
2022/03/12 10:28:59;;;;;;;19.40;17.47;;;25.60;24.90;;;;;;4917148;29;20472;-88
2022/03/12 10:31:44;;;;;;;20.73;18.60;;;25.20;25.70;;;;;;4907520;29;20453;-87
2022/03/12 10:37:40;;;;;;;19.67;18.07;;;26.40;25.00;;;;;;4776923;29;20516;-88
2022/03/12 10:40:18;;;;;;;20.53;18.73;;;27.10;24.90;;;;;;4920628;29;20424;-87
2022/03/12 10:50:14;;;;;;;18.90;17.10;;;24.30;28.00;;;;;;4853551;29;20417;-87
2022/03/12 10:53:23;;;;;;;17.87;16.27;;;24.10;28.70;;;;;;4860265;29;20450;-87
2022/03/12 11:02:53;;;;;;;16.83;15.23;;;24.30;28.80;;;;;;4910856;29;20450;-88
2022/03/12 11:06:34;;;;;;;;;;;;;;;;;;;;;
2022/03/12 11:13:56;;;;;;;18.17;16.57;;;23.50;29.20;;;;;;4808277;29;20477;-87
2022/03/12 11:16:28;;;;;;;18.83;16.83;;;25.50;28.50;;;;;;4818696;29;20472;-87
2022/03/12 11:19:58;;;;;;;18.10;16.40;;;26.10;27.30;;;;;;4921176;29;20496;-87
2022/03/12 11:23:17;;;;;;;17.70;16.30;;;25.00;27.50;;;;;;4883944;29;20454;-87
2022/03/12 11:36:35;;;;;;;17.67;15.93;;;27.80;26.00;;;;;;4813724;29;20980;-87
2022/03/12 11:50:41;;;;;;;15.73;14.30;;;23.20;29.70;;;;;;4780732;29;20483;-87
2022/03/12 11:57:01;;;;;;;18.03;16.53;;;26.00;28.70;;;;;;4901716;29;20643;-87
2022/03/12 12:07:35;;;;;;;;;;;;;;;;;;;;;
2022/03/12 12:17:17;;;;;;;17.67;16.07;;;26.30;28.30;;;;;;4809801;29;20458;-88
2022/03/12 12:19:44;;;;;;;16.10;14.53;;;28.10;27.70;;;;;;4855634;29;20454;-88
2022/03/12 12:22:20;;;;;;;17.67;15.97;;;29.00;26.40;;;;;;4914734;29;20504;-88
2022/03/12 12:24:47;;;;;;;15.80;14.30;;;30.10;26.00;;;;;;4920127;29;20529;-88
2022/03/12 12:27:18;;;;;;;14.03;12.73;;;30.60;25.60;;;;;;4918886;29;20981;-87
2022/03/12 12:32:48;;;;;;;10.67;9.60;;;31.90;25.20;;;;;;3146944;27;20906;-79
2022/03/12 12:35:17;;;;;;;14.90;13.60;;;32.20;25.30;;;;;;4934204;29;20485;-77
2022/03/12 12:37:57;;;;;;;14.10;12.80;;;31.00;25.50;;;;;;4923439;29;20464;-76
2022/03/12 12:40:42;;;;;;;14.97;13.77;;;31.00;25.80;;;;;;4924075;29;20512;-81
2022/03/12 12:43:12;;;;;;;14.70;13.50;;;31.20;25.50;;;;;;4925300;29;20871;-84
2022/03/12 12:46:08;;;;;;;14.77;13.57;;;31.50;25.40;;;;;;4931342;29;20437;-83
2022/03/12 12:48:41;;;;;;;16.43;15.00;;;31.80;24.90;;;;;;4940204;29;20457;-83
2022/03/12 12:51:11;;;;;;;14.20;13.00;;;31.90;25.00;;;;;;4944637;29;20475;-83
2022/03/12 12:53:41;;;;;;;11.30;10.20;;;29.90;26.30;;;;;;4927673;29;20458;-84
2022/03/12 12:56:23;;;;;;;12.63;11.53;;;28.60;27.80;;;;;;4922683;29;20544;-85
2022/03/12 12:59:11;;;;;;;11.57;10.27;;;28.00;28.40;;;;;;4914481;29;20446;-84
2022/03/12 13:01:49;;;;;;;12.20;11.10;;;28.80;28.20;;;;;;4913080;29;20450;-85
2022/03/12 13:04:38;;;;;;;11.97;10.87;;;28.60;28.20;;;;;;4920894;29;20457;-85
2022/03/12 13:07:19;;;;;;;10.30;9.40;;;28.70;28.40;;;;;;4924601;29;20987;-85
2022/03/12 13:10:03;;;;;;;11.40;10.40;;;29.50;27.80;;;;;;4919631;29;20459;-85
2022/03/12 13:12:43;;;;;;;35.40;11.77;;;28.80;28.40;;;;;;4926528;29;20450;-83
2022/03/12 13:15:19;;;;;;;10.40;9.53;;;27.60;29.30;;;;;;4918799;29;20480;-83
2022/03/12 13:17:47;;;;;;;10.63;9.40;;;27.80;29.40;;;;;;4934196;28;20461;-79
2022/03/12 13:20:42;;;;;;;10.60;9.47;;;26.90;30.00;;;;;;4944096;28;20446;-83
2022/03/12 13:23:12;;;;;;;9.57;8.53;;;27.30;29.70;;;;;;4927005;29;20449;-82
2022/03/12 13:25:53;;;;;;;9.47;8.67;;;27.90;29.40;;;;;;4931531;29;20566;-83
2022/03/12 13:28:39;;;;;;;12.97;8.90;;;28.80;29.00;;;;;;4930555;29;20449;-84
2022/03/12 13:31:35;;;;;;;11.03;9.47;;;28.80;28.40;;;;;;4935618;29;20454;-84
2022/03/12 13:34:06;;;;;;;10.47;9.57;;;27.50;29.30;;;;;;4899288;29;20461;-85
2022/03/12 13:36:37;;;;;;;11.37;10.33;;;25.40;31.20;;;;;;4927467;29;21018;-84
2022/03/12 13:39:06;;;;;;;10.83;9.77;;;24.70;32.50;;;;;;4920566;29;22226;-84
2022/03/12 13:41:34;;;;;;;10.63;9.63;;;24.50;33.00;;;;;;4920248;29;20510;-84
2022/03/12 13:44:01;;;;;;;9.47;8.67;;;24.70;32.90;;;;;;4922120;29;20450;-84
2022/03/12 13:46:30;;;;;;;10.10;9.23;;;25.50;32.60;;;;;;4916350;29;20485;-84
2022/03/12 13:49:06;;;;;;;12.23;10.70;;;25.30;32.40;;;;;;4932763;29;20452;-85
2022/03/12 13:51:34;;;;;;;11.10;9.93;;;24.50;32.60;;;;;;4920855;29;20978;-84
2022/03/12 13:54:03;;;;;;;10.33;9.43;;;24.60;32.90;;;;;;4920768;29;20484;-84
2022/03/12 13:56:32;;;;;;;11.70;10.60;;;24.50;32.90;;;;;;4932194;29;20467;-84
2022/03/12 13:59:04;;;;;;;12.53;10.30;;;24.30;32.90;;;;;;4925254;29;20999;-84
2022/03/12 14:01:35;;;;;;;11.30;9.93;;;24.00;33.20;;;;;;4920609;29;20486;-84
2022/03/12 14:04:03;;;;;;;11.53;9.83;;;23.40;33.80;;;;;;4924485;29;20467;-86
2022/03/12 14:06:31;;;;;;;16.03;12.83;;;23.00;34.50;;;;;;4914596;29;20994;-86
2022/03/12 14:09:01;;;;;;;14.17;11.43;;;22.80;34.60;;;;;;4923163;29;20461;-85
2022/03/12 14:11:37;;;;;;;21.10;10.93;;;22.70;34.70;;;;;;4928349;29;20443;-87
2022/03/12 14:14:07;;;;;;;10.73;9.73;;;22.10;35.20;;;;;;4928011;29;20452;-87
2022/03/12 14:16:46;;;;;;;10.27;9.37;;;22.20;35.70;;;;;;4931807;29;20532;-87